^^
Station Historical Data
Daily Summary for September 28, 2017 Units:  English    Metric   Both
« Previous Day
Next Day »
Daily Weekly Monthly Yearly Custom
  High: Low: Average:
Temperature: 74.8 °F 58.9 °F 69.7 °F
Dew Point: 71.5 °F 46.4 °F 58.5 °F
Humidity: 97% 47% 70%
Wind Speed: 6.0mph 0.0mph 2.3mph
Wind Gust: 17.0mph - -
Wind- - SW
Pressure: 29.97 in 29.73 in -
Precipitation: 0.00 in    
Historical Graphs
 
 
Tabular Data for September 28, 2017
Time Temperature Dew Point Pressure Wind Wind Speed Wind Gust Humidity Rainfall Rate (Hourly) Conditions
00:00 72.6 °F 71.4 °F 29.76 in Calm   1.0 mph 96% 0.00 in
00:15 72.7 °F 71.5 °F 29.75 in Calm   2.0 mph 96% 0.00 in
00:30 72.6 °F 71.4 °F 29.75 in Calm   1.0 mph 96% 0.00 in
00:45 72.6 °F 71.4 °F 29.75 in Calm   1.0 mph 96% 0.00 in
01:00 72.5 °F 71.3 °F 29.75 in Calm   2.0 mph 96% 0.00 in
01:15 72.5 °F 71.3 °F 29.75 in Calm   2.0 mph 96% 0.00 in
01:30 72.4 °F 71.2 °F 29.75 in Calm   1.0 mph 96% 0.00 in
01:45 72.4 °F 71.5 °F 29.74 in Calm   1.0 mph 97% 0.00 in
02:00 72.3 °F 71.4 °F 29.75 in Calm   3.0 mph 97% 0.00 in
02:15 72.2 °F 71.3 °F 29.74 in Calm   1.0 mph 97% 0.00 in
02:30 72.1 °F 71.2 °F 29.74 in Calm   1.0 mph 97% 0.00 in
02:45 72.1 °F 71.2 °F 29.74 in Calm   1.0 mph 97% 0.00 in
03:00 72.0 °F 71.1 °F 29.73 in Calm   2.0 mph 97% 0.00 in
03:15 71.8 °F 70.9 °F 29.74 in NW 1.0 mph 3.0 mph 97% 0.00 in
03:30 71.7 °F 70.8 °F 29.73 in Calm   2.0 mph 97% 0.00 in
03:45 71.5 °F 70.6 °F 29.73 in Calm   2.0 mph 97% 0.00 in
04:00 71.5 °F 70.6 °F 29.73 in Calm   1.0 mph 97% 0.00 in
04:15 71.4 °F 70.5 °F 29.74 in WNW 1.0 mph 2.0 mph 97% 0.00 in BKN
04:30 71.5 °F 70.6 °F 29.73 in Calm   1.0 mph 97% 0.00 in BKN
04:45 71.6 °F 70.7 °F 29.73 in WNW 1.0 mph 6.0 mph 97% 0.00 in BKN
05:00 71.5 °F 70.6 °F 29.73 in NW 1.0 mph 4.0 mph 97% 0.00 in BKN
05:15 71.3 °F 70.4 °F 29.74 in Calm   3.0 mph 97% 0.00 in FEW
05:30 71.2 °F 70.3 °F 29.74 in North 1.0 mph 5.0 mph 97% 0.00 in FEW
05:45 70.9 °F 70.0 °F 29.74 in North 3.0 mph 8.0 mph 97% 0.00 in FEW
06:00 70.5 °F 69.6 °F 29.74 in North 2.0 mph 9.0 mph 97% 0.00 in FEW
06:15 70.2 °F 69.0 °F 29.74 in North 2.0 mph 8.0 mph 96% 0.00 in CLR
06:30 69.8 °F 68.3 °F 29.74 in North 3.0 mph 12.0 mph 95% 0.00 in CLR
06:45 69.8 °F 67.7 °F 29.74 in North 1.0 mph 6.0 mph 93% 0.00 in CLR
07:15 69.7 °F 66.0 °F 29.75 in NNW 2.0 mph 12.0 mph 88% 0.00 in SCT
07:30 69.5 °F 64.1 °F 29.75 in North 5.0 mph 14.0 mph 83% 0.00 in SCT
07:45 69.3 °F 63.2 °F 29.75 in NNW 1.0 mph 12.0 mph 81% 0.00 in SCT
08:00 68.6 °F 61.8 °F 29.76 in NW 5.0 mph 12.0 mph 79% 0.00 in SCT
08:15 68.1 °F 60.6 °F 29.76 in NNW 1.0 mph 13.0 mph 77% 0.00 in SCT
08:30 68.2 °F 58.9 °F 29.76 in WNW 5.0 mph 12.0 mph 72% 0.00 in SCT
08:45 67.4 °F 58.1 °F 29.78 in North 3.0 mph 12.0 mph 72% 0.00 in SCT
09:00 67.8 °F 57.7 °F 29.78 in NNW 2.0 mph 8.0 mph 70% 0.00 in SCT
09:15 67.8 °F 56.5 °F 29.78 in North 5.0 mph 12.0 mph 67% 0.00 in FEW
09:30 68.1 °F 56.7 °F 29.78 in North 5.0 mph 12.0 mph 67% 0.00 in FEW
09:45 68.4 °F 56.6 °F 29.78 in NNW 1.0 mph 12.0 mph 66% 0.00 in FEW
10:00 68.4 °F 55.8 °F 29.78 in North 2.0 mph 12.0 mph 64% 0.00 in FEW
10:15 69.0 °F 56.3 °F 29.78 in NNW 5.0 mph 14.0 mph 64% 0.00 in FEW
10:30 69.3 °F 56.2 °F 29.78 in NNW 2.0 mph 15.0 mph 63% 0.00 in FEW
10:45 69.5 °F 56.3 °F 29.78 in NNW 5.0 mph 13.0 mph 63% 0.00 in FEW
11:00 69.6 °F 56.4 °F 29.78 in NW 3.0 mph 13.0 mph 63% 0.00 in FEW
11:15 70.2 °F 56.1 °F 29.78 in NNE 2.0 mph 13.0 mph 61% 0.00 in FEW
11:45 71.3 °F 55.3 °F 29.77 in NW 5.0 mph 12.0 mph 57% 0.00 in FEW
12:00 71.6 °F 54.6 °F 29.77 in NNW 6.0 mph 12.0 mph 55% 0.00 in FEW
12:15 72.1 °F 54.5 °F 29.77 in North 3.0 mph 12.0 mph 54% 0.00 in FEW
12:30 72.7 °F 55.6 °F 29.77 in NE 2.0 mph 13.0 mph 55% 0.00 in FEW
12:45 72.9 °F 54.8 °F 29.77 in NW 5.0 mph 17.0 mph 53% 0.00 in FEW
13:00 73.4 °F 55.2 °F 29.77 in North 5.0 mph 12.0 mph 53% 0.00 in FEW
13:15 73.7 °F 55.0 °F 29.76 in NW 2.0 mph 12.0 mph 52% 0.00 in FEW
13:30 74.2 °F 54.9 °F 29.76 in NNW 3.0 mph 10.0 mph 51% 0.00 in FEW
13:45 74.2 °F 54.4 °F 29.76 in NNW 3.0 mph 12.0 mph 50% 0.00 in FEW
14:00 74.6 °F 55.3 °F 29.75 in North 6.0 mph 14.0 mph 51% 0.00 in FEW
14:15 74.8 °F 54.9 °F 29.75 in NW 5.0 mph 13.0 mph 50% 0.00 in CLR
14:30 74.5 °F 54.7 °F 29.76 in North 3.0 mph 14.0 mph 50% 0.00 in CLR
14:45 74.7 °F 54.3 °F 29.76 in NNW 6.0 mph 12.0 mph 49% 0.00 in CLR
15:00 74.6 °F 53.6 °F 29.76 in WNW 5.0 mph 10.0 mph 48% 0.00 in CLR
15:15 74.6 °F 53.7 °F 29.76 in NNW 5.0 mph 12.0 mph 48% 0.00 in FEW
15:30 74.5 °F 53.5 °F 29.77 in NW 3.0 mph 13.0 mph 48% 0.00 in FEW
15:45 74.1 °F 53.2 °F 29.77 in West 3.0 mph 12.0 mph 48% 0.00 in FEW
16:00 74.0 °F 53.0 °F 29.77 in NNW 6.0 mph 15.0 mph 48% 0.00 in FEW
16:15 74.2 °F 53.3 °F 29.78 in NNW 2.0 mph 14.0 mph 48% 0.00 in FEW
16:30 74.0 °F 53.1 °F 29.78 in NW 6.0 mph 14.0 mph 48% 0.00 in FEW
17:00 74.6 °F 53.0 °F 29.79 in NNW 1.0 mph 7.0 mph 47% 0.00 in FEW
17:15 73.6 °F 52.1 °F 29.80 in ENE 3.0 mph 12.0 mph 47% 0.00 in FEW
17:30 72.8 °F 52.0 °F 29.81 in NW 5.0 mph 9.0 mph 48% 0.00 in FEW
17:45 71.8 °F 52.2 °F 29.82 in North 3.0 mph 10.0 mph 50% 0.00 in FEW
18:00 70.1 °F 52.2 °F 29.82 in North 3.0 mph 7.0 mph 53% 0.00 in FEW
18:15 69.8 °F 51.4 °F 29.83 in North 3.0 mph 12.0 mph 52% 0.00 in FEW
18:30 69.1 °F 50.7 °F 29.83 in North 2.0 mph 10.0 mph 52% 0.00 in FEW
18:45 67.9 °F 50.1 °F 29.84 in Calm   8.0 mph 53% 0.00 in FEW
19:00 66.8 °F 49.1 °F 29.86 in North 3.0 mph 10.0 mph 53% 0.00 in FEW
19:15 66.1 °F 49.0 °F 29.87 in NW 1.0 mph 12.0 mph 54% 0.00 in CLR
19:30 65.4 °F 48.8 °F 29.87 in NNE 2.0 mph 11.0 mph 55% 0.00 in CLR
19:45 64.8 °F 48.8 °F 29.88 in North 1.0 mph 7.0 mph 56% 0.00 in CLR
20:00 64.4 °F 48.3 °F 29.89 in NNW 2.0 mph 7.0 mph 56% 0.00 in CLR
20:15 63.9 °F 48.4 °F 29.90 in North 1.0 mph 8.0 mph 57% 0.00 in CLR
20:30 63.5 °F 48.0 °F 29.90 in NNW 1.0 mph 12.0 mph 57% 0.00 in CLR
20:45 63.1 °F 47.6 °F 29.91 in ENE 1.0 mph 10.0 mph 57% 0.00 in CLR
21:00 62.8 °F 47.8 °F 29.92 in North 3.0 mph 10.0 mph 58% 0.00 in CLR
21:15 62.4 °F 47.4 °F 29.92 in North 5.0 mph 12.0 mph 58% 0.00 in CLR
21:30 62.0 °F 47.0 °F 29.93 in North 1.0 mph 8.0 mph 58% 0.00 in CLR
21:45 61.6 °F 47.1 °F 29.94 in Calm   10.0 mph 59% 0.00 in CLR
22:00 61.2 °F 46.8 °F 29.94 in North 2.0 mph 12.0 mph 59% 0.00 in CLR
22:15 60.8 °F 46.8 °F 29.95 in Calm   13.0 mph 60% 0.00 in CLR
22:30 60.4 °F 46.4 °F 29.95 in WNW 5.0 mph 8.0 mph 60% 0.00 in CLR
22:45 60.1 °F 47.0 °F 29.95 in North 3.0 mph 12.0 mph 62% 0.00 in CLR
23:00 59.9 °F 46.8 °F 29.95 in North 2.0 mph 12.0 mph 62% 0.00 in CLR
23:30 59.3 °F 47.1 °F 29.96 in NNE 1.0 mph 7.0 mph 64% 0.00 in CLR
23:45 58.9 °F 47.1 °F 29.97 in North 1.0 mph 4.0 mph 65% 0.00 in CLR
TarryTown NY Weather
Compliments of Weather Underground - 1.5 mb